createdAt,value
2018-12-26T00:00:00.000Z,100062
2018-12-26T00:05:00.000Z,100060
2018-12-26T00:10:00.000Z,100073
2018-12-26T00:15:00.000Z,100065
2018-12-26T00:20:00.000Z,100073
2018-12-26T00:25:00.000Z,100081
2018-12-26T00:31:00.000Z,100063
2018-12-26T00:36:00.000Z,100066
2018-12-26T00:41:00.000Z,100050
2018-12-26T00:46:00.000Z,100072
2018-12-26T00:51:00.000Z,100055
2018-12-26T00:56:00.000Z,100061
2018-12-26T01:01:00.000Z,100057
2018-12-26T01:06:00.000Z,100065
2018-12-26T01:11:00.000Z,100062
2018-12-26T01:16:00.000Z,100067
2018-12-26T01:21:00.000Z,100078
2018-12-26T01:26:00.000Z,100064
2018-12-26T01:31:00.000Z,100073
2018-12-26T01:36:00.000Z,100071
2018-12-26T01:41:00.000Z,100055
2018-12-26T01:46:00.000Z,100051
2018-12-26T01:51:00.000Z,100049
2018-12-26T01:56:00.000Z,100038
2018-12-26T02:01:00.000Z,100035
2018-12-26T02:06:00.000Z,100011
2018-12-26T02:11:00.000Z,100012
2018-12-26T02:16:00.000Z,100016
2018-12-26T02:21:00.000Z,100017
2018-12-26T02:26:00.000Z,100016
2018-12-26T02:31:00.000Z,100021
2018-12-26T02:36:00.000Z,100010
2018-12-26T02:41:00.000Z,100013
2018-12-26T02:46:00.000Z,100023
2018-12-26T02:51:00.000Z,99997
2018-12-26T02:56:00.000Z,99993
2018-12-26T03:01:00.000Z,99971
2018-12-26T03:06:00.000Z,99979
2018-12-26T03:11:00.000Z,99973
2018-12-26T03:16:00.000Z,99946
2018-12-26T03:21:00.000Z,99940
2018-12-26T03:26:00.000Z,99961
2018-12-26T03:31:00.000Z,99964
2018-12-26T03:36:00.000Z,99951
2018-12-26T03:41:00.000Z,99957
2018-12-26T03:46:00.000Z,99976
2018-12-26T03:52:00.000Z,99977
2018-12-26T03:57:00.000Z,99976
2018-12-26T04:02:00.000Z,99967
2018-12-26T04:07:00.000Z,99962
2018-12-26T04:12:00.000Z,99942
2018-12-26T04:17:00.000Z,99962
2018-12-26T04:22:00.000Z,99954
2018-12-26T04:27:00.000Z,99943
2018-12-26T04:32:00.000Z,99944
2018-12-26T04:37:00.000Z,99953
2018-12-26T04:42:00.000Z,99964
2018-12-26T04:47:00.000Z,99971
2018-12-26T04:52:00.000Z,99977
2018-12-26T04:57:00.000Z,99966
2018-12-26T05:02:00.000Z,99968
2018-12-26T05:07:00.000Z,99975
2018-12-26T05:12:00.000Z,99964
2018-12-26T05:17:00.000Z,99968
2018-12-26T05:22:00.000Z,99974
2018-12-26T05:27:00.000Z,99960
2018-12-26T05:32:00.000Z,99967
2018-12-26T05:37:00.000Z,99964
2018-12-26T05:42:00.000Z,99943
2018-12-26T05:47:00.000Z,99948
2018-12-26T05:52:00.000Z,99934
2018-12-26T05:57:00.000Z,99948
2018-12-26T06:02:00.000Z,99949
2018-12-26T06:07:00.000Z,99950
2018-12-26T06:12:00.000Z,99951
2018-12-26T06:17:00.000Z,99952
2018-12-26T06:22:00.000Z,99947
2018-12-26T06:27:00.000Z,99944
2018-12-26T06:32:00.000Z,99966
2018-12-26T06:37:00.000Z,99975
2018-12-26T06:42:00.000Z,99952
2018-12-26T06:47:00.000Z,99958
2018-12-26T06:52:00.000Z,99954
2018-12-26T06:57:00.000Z,99952
2018-12-26T07:03:00.000Z,99938
2018-12-26T07:08:00.000Z,99955
2018-12-26T07:13:00.000Z,99944
2018-12-26T07:18:00.000Z,99934
2018-12-26T07:23:00.000Z,99931
2018-12-26T07:28:00.000Z,99925
2018-12-26T07:33:00.000Z,99918
2018-12-26T07:38:00.000Z,99926
2018-12-26T07:43:00.000Z,99918
2018-12-26T07:48:00.000Z,99904
2018-12-26T07:53:00.000Z,99931
2018-12-26T07:58:00.000Z,99942
2018-12-26T08:03:00.000Z,99938
2018-12-26T08:08:00.000Z,99928
2018-12-26T08:13:00.000Z,99911
2018-12-26T08:18:00.000Z,99892
2018-12-26T08:23:00.000Z,99904
2018-12-26T08:28:00.000Z,99896
2018-12-26T08:33:00.000Z,99916
2018-12-26T08:38:00.000Z,99917
2018-12-26T08:43:00.000Z,99927
2018-12-26T08:48:00.000Z,99906
2018-12-26T08:53:00.000Z,99894
2018-12-26T08:58:00.000Z,99875
2018-12-26T09:03:00.000Z,99887
2018-12-26T09:08:00.000Z,99891
2018-12-26T09:13:00.000Z,99917
2018-12-26T09:18:00.000Z,99893
2018-12-26T09:23:00.000Z,99912
2018-12-26T09:28:00.000Z,99914
2018-12-26T09:33:00.000Z,99889
2018-12-26T09:38:00.000Z,99886
2018-12-26T09:43:00.000Z,99897
2018-12-26T09:48:00.000Z,99903
2018-12-26T09:53:00.000Z,99882
2018-12-26T09:58:00.000Z,99871
2018-12-26T10:03:00.000Z,99865
2018-12-26T10:08:00.000Z,99879
2018-12-26T10:13:00.000Z,99858
2018-12-26T10:18:00.000Z,99851
2018-12-26T10:23:00.000Z,99856
2018-12-26T10:28:00.000Z,99838
2018-12-26T10:34:00.000Z,99828
2018-12-26T10:39:00.000Z,99823
2018-12-26T10:44:00.000Z,99824
2018-12-26T10:49:00.000Z,99833
2018-12-26T10:54:00.000Z,99841
2018-12-26T10:59:00.000Z,99826
2018-12-26T11:04:00.000Z,99811
2018-12-26T11:09:00.000Z,99810
2018-12-26T11:14:00.000Z,99804
2018-12-26T11:19:00.000Z,99791
2018-12-26T11:24:00.000Z,99795
2018-12-26T11:29:00.000Z,99803
2018-12-26T11:34:00.000Z,99799
2018-12-26T11:39:00.000Z,99804
2018-12-26T11:44:00.000Z,99806
2018-12-26T11:49:00.000Z,99817
2018-12-26T11:54:00.000Z,99824
2018-12-26T11:59:00.000Z,99830
2018-12-26T12:04:00.000Z,99820
2018-12-26T12:09:00.000Z,99819
2018-12-26T12:14:00.000Z,99804
2018-12-26T12:19:00.000Z,99820
2018-12-26T12:24:00.000Z,99819
2018-12-26T12:29:00.000Z,99814
2018-12-26T12:34:00.000Z,99820
2018-12-26T12:39:00.000Z,99802
2018-12-26T12:44:00.000Z,99815
2018-12-26T12:49:00.000Z,99812
2018-12-26T12:54:00.000Z,99806
2018-12-26T12:59:00.000Z,99810
2018-12-26T13:04:00.000Z,99821
2018-12-26T13:09:00.000Z,99812
2018-12-26T13:14:00.000Z,99817
2018-12-26T13:19:00.000Z,99820
2018-12-26T13:24:00.000Z,99823
2018-12-26T13:29:00.000Z,99834
2018-12-26T13:34:00.000Z,99823
2018-12-26T13:39:00.000Z,99821
2018-12-26T13:44:00.000Z,99814
2018-12-26T13:49:00.000Z,99821
2018-12-26T13:54:00.000Z,99818
2018-12-26T13:59:00.000Z,99817
2018-12-26T14:05:00.000Z,99824
2018-12-26T14:10:00.000Z,99810
2018-12-26T14:15:00.000Z,99806
2018-12-26T14:20:00.000Z,99813
2018-12-26T14:25:00.000Z,99809
2018-12-26T14:30:00.000Z,99797
2018-12-26T14:35:00.000Z,99797
2018-12-26T14:40:00.000Z,99799
2018-12-26T14:45:00.000Z,99798
2018-12-26T14:50:00.000Z,99795
2018-12-26T14:55:00.000Z,99806
2018-12-26T15:00:00.000Z,99807
2018-12-26T15:05:00.000Z,99795
2018-12-26T15:10:00.000Z,99808
2018-12-26T15:15:00.000Z,99816
2018-12-26T15:20:00.000Z,99816
2018-12-26T15:25:00.000Z,99810
2018-12-26T15:30:00.000Z,99817
2018-12-26T15:35:00.000Z,99825
2018-12-26T15:40:00.000Z,99818
2018-12-26T15:45:00.000Z,99816
2018-12-26T15:50:00.000Z,99826
2018-12-26T15:55:00.000Z,99821
2018-12-26T16:00:00.000Z,99827
2018-12-26T16:05:00.000Z,99830
2018-12-26T16:10:00.000Z,99819
2018-12-26T16:15:00.000Z,99835
2018-12-26T16:20:00.000Z,99829
2018-12-26T16:25:00.000Z,99835
2018-12-26T16:30:00.000Z,99825
2018-12-26T16:35:00.000Z,99827
2018-12-26T16:40:00.000Z,99815
2018-12-26T16:45:00.000Z,99821
2018-12-26T16:50:00.000Z,99827
2018-12-26T16:55:00.000Z,99817
2018-12-26T17:00:00.000Z,99816
2018-12-26T17:05:00.000Z,99822
2018-12-26T17:10:00.000Z,99825
2018-12-26T17:15:00.000Z,99822
2018-12-26T17:20:00.000Z,99829
2018-12-26T17:25:00.000Z,99833
2018-12-26T17:30:00.000Z,99824
2018-12-26T17:36:00.000Z,99824
2018-12-26T17:41:00.000Z,99813
2018-12-26T17:46:00.000Z,99820
2018-12-26T17:51:00.000Z,99815
2018-12-26T17:56:00.000Z,99810
2018-12-26T18:01:00.000Z,99819
2018-12-26T18:06:00.000Z,99814
2018-12-26T18:11:00.000Z,99803
2018-12-26T18:16:00.000Z,99804
2018-12-26T18:21:00.000Z,99813
2018-12-26T18:26:00.000Z,99807
2018-12-26T18:31:00.000Z,99809
2018-12-26T18:36:00.000Z,99809
2018-12-26T18:41:00.000Z,99801
2018-12-26T18:46:00.000Z,99823
2018-12-26T18:51:00.000Z,99831
2018-12-26T18:56:00.000Z,99825
2018-12-26T19:01:00.000Z,99826
2018-12-26T19:06:00.000Z,99809
2018-12-26T19:11:00.000Z,99817
2018-12-26T19:16:00.000Z,99804
2018-12-26T19:21:00.000Z,99810
2018-12-26T19:26:00.000Z,99823
2018-12-26T19:31:00.000Z,99830
2018-12-26T19:36:00.000Z,99814
2018-12-26T19:41:00.000Z,99819
2018-12-26T19:46:00.000Z,99812
2018-12-26T19:51:00.000Z,99807
2018-12-26T19:56:00.000Z,99797
2018-12-26T20:01:00.000Z,99801
2018-12-26T20:06:00.000Z,99799
2018-12-26T20:11:00.000Z,99802
2018-12-26T20:16:00.000Z,99791
2018-12-26T20:21:00.000Z,99795
2018-12-26T20:26:00.000Z,99798
2018-12-26T20:31:00.000Z,99797
2018-12-26T20:36:00.000Z,99788
2018-12-26T20:41:00.000Z,99784
2018-12-26T20:46:00.000Z,99765
2018-12-26T20:51:00.000Z,99774
2018-12-26T20:57:00.000Z,99765
2018-12-26T21:02:00.000Z,99765
2018-12-26T21:07:00.000Z,99747
2018-12-26T21:12:00.000Z,99766
2018-12-26T21:17:00.000Z,99766
2018-12-26T21:22:00.000Z,99760
2018-12-26T21:27:00.000Z,99757
2018-12-26T21:32:00.000Z,99742
2018-12-26T21:37:00.000Z,99742
2018-12-26T21:42:00.000Z,99749
2018-12-26T21:47:00.000Z,99739
2018-12-26T21:52:00.000Z,99741
2018-12-26T21:57:00.000Z,99724
2018-12-26T22:02:00.000Z,99725
2018-12-26T22:07:00.000Z,99741
2018-12-26T22:12:00.000Z,99741
2018-12-26T22:17:00.000Z,99735
2018-12-26T22:22:00.000Z,99746
2018-12-26T22:27:00.000Z,99760
2018-12-26T22:32:00.000Z,99750
2018-12-26T22:37:00.000Z,99751
2018-12-26T22:42:00.000Z,99752
2018-12-26T22:47:00.000Z,99760
2018-12-26T22:52:00.000Z,99754
2018-12-26T22:57:00.000Z,99746
2018-12-26T23:02:00.000Z,99760
2018-12-26T23:07:00.000Z,99763
2018-12-26T23:12:00.000Z,99764
2018-12-26T23:17:00.000Z,99756
2018-12-26T23:22:00.000Z,99753
2018-12-26T23:27:00.000Z,99755
2018-12-26T23:32:00.000Z,99751
2018-12-26T23:37:00.000Z,99752
2018-12-26T23:42:00.000Z,99766
2018-12-26T23:47:00.000Z,99782
2018-12-26T23:52:00.000Z,99793
2018-12-26T23:57:00.000Z,99781
